sensor_id;sensor_type;location;lat;lon;timestamp;P1;durP1;ratioP1;P2;durP2;ratioP2
40314;SDS011;26021;45.640;11.302;2023-08-24T00:01:09;13.73;;;12.35;;
40314;SDS011;26021;45.640;11.302;2023-08-24T00:03:37;13.45;;;12.25;;
40314;SDS011;26021;45.640;11.302;2023-08-24T00:06:02;14.00;;;12.02;;
40314;SDS011;26021;45.640;11.302;2023-08-24T00:08:28;13.13;;;11.82;;
40314;SDS011;26021;45.640;11.302;2023-08-24T00:10:53;14.00;;;12.57;;
40314;SDS011;26021;45.640;11.302;2023-08-24T00:13:19;13.48;;;12.23;;
40314;SDS011;26021;45.640;11.302;2023-08-24T00:15:45;13.20;;;12.00;;
40314;SDS011;26021;45.640;11.302;2023-08-24T00:18:10;13.95;;;11.57;;
40314;SDS011;26021;45.640;11.302;2023-08-24T00:20:36;13.00;;;11.77;;
40314;SDS011;26021;45.640;11.302;2023-08-24T00:23:02;14.63;;;11.73;;
40314;SDS011;26021;45.640;11.302;2023-08-24T00:25:28;13.00;;;11.65;;
40314;SDS011;26021;45.640;11.302;2023-08-24T00:27:54;12.90;;;11.77;;
40314;SDS011;26021;45.640;11.302;2023-08-24T00:30:20;12.90;;;11.63;;
40314;SDS011;26021;45.640;11.302;2023-08-24T00:32:46;14.57;;;12.68;;
40314;SDS011;26021;45.640;11.302;2023-08-24T00:35:11;17.15;;;12.73;;
40314;SDS011;26021;45.640;11.302;2023-08-24T00:37:37;13.95;;;12.20;;
40314;SDS011;26021;45.640;11.302;2023-08-24T00:40:04;13.60;;;12.30;;
40314;SDS011;26021;45.640;11.302;2023-08-24T00:42:41;13.90;;;12.40;;
40314;SDS011;26021;45.640;11.302;2023-08-24T00:45:08;16.50;;;13.18;;
40314;SDS011;26021;45.640;11.302;2023-08-24T00:47:36;15.70;;;12.10;;
40314;SDS011;26021;45.640;11.302;2023-08-24T00:50:02;13.85;;;12.27;;
40314;SDS011;26021;45.640;11.302;2023-08-24T00:52:28;16.15;;;12.35;;
40314;SDS011;26021;45.640;11.302;2023-08-24T00:54:57;13.52;;;12.20;;
40314;SDS011;26021;45.640;11.302;2023-08-24T00:57:24;14.02;;;12.63;;
40314;SDS011;26021;45.640;11.302;2023-08-24T00:59:50;12.95;;;11.75;;
40314;SDS011;26021;45.640;11.302;2023-08-24T01:02:15;14.18;;;12.85;;
40314;SDS011;26021;45.640;11.302;2023-08-24T01:04:41;15.68;;;12.18;;
40314;SDS011;26021;45.640;11.302;2023-08-24T01:07:08;13.75;;;12.35;;
40314;SDS011;26021;45.640;11.302;2023-08-24T01:09:34;12.63;;;11.52;;
40314;SDS011;26021;45.640;11.302;2023-08-24T01:12:02;12.60;;;11.40;;
40314;SDS011;26021;45.640;11.302;2023-08-24T01:14:58;14.85;;;13.20;;
40314;SDS011;26021;45.640;11.302;2023-08-24T01:17:22;13.77;;;12.38;;
40314;SDS011;26021;45.640;11.302;2023-08-24T01:19:49;13.70;;;12.30;;
40314;SDS011;26021;45.640;11.302;2023-08-24T01:22:20;13.60;;;11.80;;
40314;SDS011;26021;45.640;11.302;2023-08-24T01:24:52;12.15;;;11.00;;
40314;SDS011;26021;45.640;11.302;2023-08-24T01:27:24;13.48;;;12.18;;
40314;SDS011;26021;45.640;11.302;2023-08-24T01:29:51;14.80;;;13.25;;
40314;SDS011;26021;45.640;11.302;2023-08-24T01:32:21;13.77;;;12.38;;
40314;SDS011;26021;45.640;11.302;2023-08-24T01:34:46;13.20;;;11.80;;
40314;SDS011;26021;45.640;11.302;2023-08-24T01:37:12;13.50;;;12.10;;
40314;SDS011;26021;45.640;11.302;2023-08-24T01:42:45;13.65;;;11.75;;
40314;SDS011;26021;45.640;11.302;2023-08-24T01:45:12;14.02;;;12.52;;
40314;SDS011;26021;45.640;11.302;2023-08-24T01:47:41;13.77;;;12.00;;
40314;SDS011;26021;45.640;11.302;2023-08-24T01:50:08;15.52;;;12.65;;
40314;SDS011;26021;45.640;11.302;2023-08-24T01:52:34;13.38;;;12.05;;
40314;SDS011;26021;45.640;11.302;2023-08-24T01:55:00;13.15;;;11.85;;
40314;SDS011;26021;45.640;11.302;2023-08-24T01:57:25;13.32;;;12.02;;
40314;SDS011;26021;45.640;11.302;2023-08-24T01:59:51;13.80;;;12.60;;
40314;SDS011;26021;45.640;11.302;2023-08-24T02:02:16;14.55;;;12.68;;
40314;SDS011;26021;45.640;11.302;2023-08-24T02:04:42;13.95;;;12.52;;
40314;SDS011;26021;45.640;11.302;2023-08-24T02:07:08;13.63;;;12.32;;
40314;SDS011;26021;45.640;11.302;2023-08-24T02:09:34;13.57;;;12.38;;
40314;SDS011;26021;45.640;11.302;2023-08-24T02:11:59;13.00;;;11.80;;
40314;SDS011;26021;45.640;11.302;2023-08-24T02:14:25;14.98;;;12.27;;
40314;SDS011;26021;45.640;11.302;2023-08-24T02:16:50;14.80;;;13.30;;
40314;SDS011;26021;45.640;11.302;2023-08-24T02:19:15;16.73;;;12.68;;
40314;SDS011;26021;45.640;11.302;2023-08-24T02:21:41;14.52;;;11.70;;
40314;SDS011;26021;45.640;11.302;2023-08-24T02:24:06;15.23;;;13.15;;
40314;SDS011;26021;45.640;11.302;2023-08-24T02:26:32;14.15;;;12.65;;
40314;SDS011;26021;45.640;11.302;2023-08-24T02:28:57;13.60;;;11.93;;
40314;SDS011;26021;45.640;11.302;2023-08-24T02:31:23;13.93;;;12.52;;
40314;SDS011;26021;45.640;11.302;2023-08-24T02:33:48;13.75;;;12.45;;
40314;SDS011;26021;45.640;11.302;2023-08-24T02:36:14;14.23;;;12.80;;
40314;SDS011;26021;45.640;11.302;2023-08-24T02:38:40;14.57;;;12.38;;
40314;SDS011;26021;45.640;11.302;2023-08-24T02:41:06;13.55;;;12.25;;
40314;SDS011;26021;45.640;11.302;2023-08-24T02:43:33;13.63;;;12.10;;
40314;SDS011;26021;45.640;11.302;2023-08-24T02:46:08;14.07;;;12.77;;
40314;SDS011;26021;45.640;11.302;2023-08-24T02:48:34;13.68;;;12.27;;
40314;SDS011;26021;45.640;11.302;2023-08-24T02:51:01;14.35;;;12.88;;
40314;SDS011;26021;45.640;11.302;2023-08-24T02:53:28;13.15;;;11.77;;
40314;SDS011;26021;45.640;11.302;2023-08-24T02:55:54;12.98;;;11.63;;
40314;SDS011;26021;45.640;11.302;2023-08-24T02:58:20;13.85;;;12.55;;
40314;SDS011;26021;45.640;11.302;2023-08-24T03:00:46;14.18;;;12.57;;
40314;SDS011;26021;45.640;11.302;2023-08-24T03:03:12;14.25;;;12.73;;
40314;SDS011;26021;45.640;11.302;2023-08-24T03:05:41;13.20;;;11.82;;
40314;SDS011;26021;45.640;11.302;2023-08-24T03:08:17;13.57;;;12.30;;
40314;SDS011;26021;45.640;11.302;2023-08-24T03:10:42;13.25;;;11.95;;
40314;SDS011;26021;45.640;11.302;2023-08-24T03:13:08;13.98;;;12.02;;
40314;SDS011;26021;45.640;11.302;2023-08-24T03:15:34;14.70;;;13.18;;
40314;SDS011;26021;45.640;11.302;2023-08-24T03:18:00;13.77;;;12.48;;
40314;SDS011;26021;45.640;11.302;2023-08-24T03:20:25;13.63;;;12.15;;
40314;SDS011;26021;45.640;11.302;2023-08-24T03:22:51;13.90;;;12.50;;
40314;SDS011;26021;45.640;11.302;2023-08-24T03:25:16;14.73;;;13.32;;
40314;SDS011;26021;45.640;11.302;2023-08-24T03:27:42;13.45;;;12.07;;
40314;SDS011;26021;45.640;11.302;2023-08-24T03:30:07;14.35;;;12.88;;
40314;SDS011;26021;45.640;11.302;2023-08-24T03:32:33;14.77;;;13.25;;
40314;SDS011;26021;45.640;11.302;2023-08-24T03:34:59;13.30;;;12.07;;
40314;SDS011;26021;45.640;11.302;2023-08-24T03:37:24;14.32;;;12.35;;
40314;SDS011;26021;45.640;11.302;2023-08-24T03:39:50;13.68;;;12.32;;
40314;SDS011;26021;45.640;11.302;2023-08-24T03:42:15;13.90;;;12.30;;
40314;SDS011;26021;45.640;11.302;2023-08-24T03:44:40;12.88;;;11.77;;
40314;SDS011;26021;45.640;11.302;2023-08-24T03:47:06;14.07;;;12.68;;
40314;SDS011;26021;45.640;11.302;2023-08-24T03:49:31;15.20;;;13.48;;
40314;SDS011;26021;45.640;11.302;2023-08-24T03:51:57;12.85;;;11.65;;
40314;SDS011;26021;45.640;11.302;2023-08-24T03:54:22;15.60;;;12.63;;
40314;SDS011;26021;45.640;11.302;2023-08-24T03:56:48;14.90;;;12.88;;
40314;SDS011;26021;45.640;11.302;2023-08-24T03:59:13;12.57;;;11.38;;
40314;SDS011;26021;45.640;11.302;2023-08-24T04:01:39;13.32;;;12.05;;
40314;SDS011;26021;45.640;11.302;2023-08-24T04:04:04;13.65;;;12.38;;
40314;SDS011;26021;45.640;11.302;2023-08-24T04:06:29;13.13;;;11.70;;
40314;SDS011;26021;45.640;11.302;2023-08-24T04:08:55;14.05;;;12.65;;
40314;SDS011;26021;45.640;11.302;2023-08-24T04:11:20;14.18;;;12.75;;
40314;SDS011;26021;45.640;11.302;2023-08-24T04:13:46;14.32;;;12.25;;
40314;SDS011;26021;45.640;11.302;2023-08-24T04:16:11;13.85;;;12.45;;
40314;SDS011;26021;45.640;11.302;2023-08-24T04:18:36;13.00;;;11.80;;
40314;SDS011;26021;45.640;11.302;2023-08-24T04:21:02;17.17;;;12.50;;
40314;SDS011;26021;45.640;11.302;2023-08-24T04:23:27;13.27;;;11.98;;
40314;SDS011;26021;45.640;11.302;2023-08-24T04:25:53;14.25;;;12.95;;
40314;SDS011;26021;45.640;11.302;2023-08-24T04:28:20;15.77;;;12.52;;
40314;SDS011;26021;45.640;11.302;2023-08-24T04:30:54;14.02;;;12.50;;
40314;SDS011;26021;45.640;11.302;2023-08-24T04:33:23;14.98;;;12.50;;
40314;SDS011;26021;45.640;11.302;2023-08-24T04:35:48;14.10;;;12.65;;
40314;SDS011;26021;45.640;11.302;2023-08-24T04:38:15;14.25;;;12.45;;
40314;SDS011;26021;45.640;11.302;2023-08-24T04:40:59;14.85;;;12.88;;
40314;SDS011;26021;45.640;11.302;2023-08-24T04:43:24;13.93;;;12.52;;
40314;SDS011;26021;45.640;11.302;2023-08-24T04:45:50;13.70;;;12.40;;
40314;SDS011;26021;45.640;11.302;2023-08-24T04:48:20;13.68;;;12.48;;
40314;SDS011;26021;45.640;11.302;2023-08-24T04:50:47;15.75;;;12.27;;
40314;SDS011;26021;45.640;11.302;2023-08-24T04:53:14;14.57;;;12.90;;
40314;SDS011;26021;45.640;11.302;2023-08-24T04:55:43;14.13;;;12.90;;
40314;SDS011;26021;45.640;11.302;2023-08-24T04:58:09;13.75;;;12.52;;
40314;SDS011;26021;45.640;11.302;2023-08-24T05:00:36;13.98;;;12.60;;
40314;SDS011;26021;45.640;11.302;2023-08-24T05:03:03;15.48;;;13.00;;
40314;SDS011;26021;45.640;11.302;2023-08-24T05:05:30;16.90;;;12.85;;
40314;SDS011;26021;45.640;11.302;2023-08-24T05:07:56;14.38;;;12.85;;
40314;SDS011;26021;45.640;11.302;2023-08-24T05:10:23;13.18;;;11.88;;
40314;SDS011;26021;45.640;11.302;2023-08-24T05:12:48;14.68;;;12.65;;
40314;SDS011;26021;45.640;11.302;2023-08-24T05:15:14;15.00;;;13.10;;
40314;SDS011;26021;45.640;11.302;2023-08-24T05:17:40;14.27;;;12.88;;
40314;SDS011;26021;45.640;11.302;2023-08-24T05:20:06;16.90;;;13.25;;
40314;SDS011;26021;45.640;11.302;2023-08-24T05:22:33;17.35;;;13.90;;
40314;SDS011;26021;45.640;11.302;2023-08-24T05:24:58;16.42;;;14.00;;
40314;SDS011;26021;45.640;11.302;2023-08-24T05:27:24;15.48;;;13.85;;
40314;SDS011;26021;45.640;11.302;2023-08-24T05:29:49;17.15;;;13.98;;
40314;SDS011;26021;45.640;11.302;2023-08-24T05:32:15;16.33;;;13.73;;
40314;SDS011;26021;45.640;11.302;2023-08-24T05:34:40;16.23;;;13.93;;
40314;SDS011;26021;45.640;11.302;2023-08-24T05:37:05;15.88;;;14.25;;
40314;SDS011;26021;45.640;11.302;2023-08-24T05:39:31;16.50;;;14.00;;
40314;SDS011;26021;45.640;11.302;2023-08-24T05:41:56;16.17;;;13.15;;
40314;SDS011;26021;45.640;11.302;2023-08-24T05:44:21;16.30;;;14.13;;
40314;SDS011;26021;45.640;11.302;2023-08-24T05:46:47;15.68;;;14.07;;
40314;SDS011;26021;45.640;11.302;2023-08-24T05:49:13;14.55;;;13.10;;
40314;SDS011;26021;45.640;11.302;2023-08-24T05:51:38;17.17;;;12.93;;
40314;SDS011;26021;45.640;11.302;2023-08-24T05:54:03;16.02;;;12.95;;
40314;SDS011;26021;45.640;11.302;2023-08-24T05:56:29;15.10;;;13.60;;
40314;SDS011;26021;45.640;11.302;2023-08-24T05:58:54;14.63;;;12.93;;
40314;SDS011;26021;45.640;11.302;2023-08-24T06:01:20;15.70;;;13.48;;
40314;SDS011;26021;45.640;11.302;2023-08-24T06:03:46;14.38;;;12.77;;
40314;SDS011;26021;45.640;11.302;2023-08-24T06:06:11;15.98;;;13.38;;
40314;SDS011;26021;45.640;11.302;2023-08-24T06:08:37;15.25;;;13.00;;
40314;SDS011;26021;45.640;11.302;2023-08-24T06:11:03;14.13;;;12.88;;
40314;SDS011;26021;45.640;11.302;2023-08-24T06:13:28;14.38;;;12.93;;
40314;SDS011;26021;45.640;11.302;2023-08-24T06:15:54;17.02;;;13.25;;
40314;SDS011;26021;45.640;11.302;2023-08-24T06:18:19;14.13;;;12.45;;
40314;SDS011;26021;45.640;11.302;2023-08-24T06:20:45;16.17;;;12.73;;
40314;SDS011;26021;45.640;11.302;2023-08-24T06:23:11;13.85;;;12.55;;
40314;SDS011;26021;45.640;11.302;2023-08-24T06:25:38;16.08;;;13.32;;
40314;SDS011;26021;45.640;11.302;2023-08-24T06:28:04;15.45;;;13.52;;
40314;SDS011;26021;45.640;11.302;2023-08-24T06:30:29;14.38;;;12.80;;
40314;SDS011;26021;45.640;11.302;2023-08-24T06:33:01;16.65;;;13.63;;
40314;SDS011;26021;45.640;11.302;2023-08-24T06:35:28;14.93;;;12.70;;
40314;SDS011;26021;45.640;11.302;2023-08-24T06:37:53;15.70;;;12.77;;
40314;SDS011;26021;45.640;11.302;2023-08-24T06:40:19;14.27;;;12.48;;
40314;SDS011;26021;45.640;11.302;2023-08-24T06:42:44;14.65;;;13.10;;
40314;SDS011;26021;45.640;11.302;2023-08-24T06:45:11;17.30;;;12.68;;
40314;SDS011;26021;45.640;11.302;2023-08-24T06:47:37;13.82;;;11.93;;
40314;SDS011;26021;45.640;11.302;2023-08-24T06:50:05;14.82;;;13.32;;
40314;SDS011;26021;45.640;11.302;2023-08-24T06:52:31;17.52;;;12.70;;
40314;SDS011;26021;45.640;11.302;2023-08-24T06:54:57;13.38;;;11.90;;
40314;SDS011;26021;45.640;11.302;2023-08-24T06:57:23;14.15;;;12.07;;
40314;SDS011;26021;45.640;11.302;2023-08-24T06:59:48;14.20;;;12.25;;
40314;SDS011;26021;45.640;11.302;2023-08-24T07:02:13;13.18;;;11.80;;
40314;SDS011;26021;45.640;11.302;2023-08-24T07:04:39;13.13;;;11.80;;
40314;SDS011;26021;45.640;11.302;2023-08-24T07:07:05;16.30;;;12.45;;
40314;SDS011;26021;45.640;11.302;2023-08-24T07:09:31;13.30;;;11.75;;
40314;SDS011;26021;45.640;11.302;2023-08-24T07:11:57;13.45;;;11.85;;
40314;SDS011;26021;45.640;11.302;2023-08-24T07:14:22;12.95;;;11.57;;
40314;SDS011;26021;45.640;11.302;2023-08-24T07:16:48;12.85;;;11.43;;
40314;SDS011;26021;45.640;11.302;2023-08-24T07:19:13;13.27;;;11.98;;
40314;SDS011;26021;45.640;11.302;2023-08-24T07:21:38;13.77;;;11.40;;
40314;SDS011;26021;45.640;11.302;2023-08-24T07:24:04;12.65;;;11.40;;
40314;SDS011;26021;45.640;11.302;2023-08-24T07:26:29;12.75;;;11.55;;
40314;SDS011;26021;45.640;11.302;2023-08-24T07:28:55;12.15;;;11.05;;
40314;SDS011;26021;45.640;11.302;2023-08-24T07:31:21;12.60;;;11.43;;
40314;SDS011;26021;45.640;11.302;2023-08-24T07:33:47;12.90;;;11.30;;
40314;SDS011;26021;45.640;11.302;2023-08-24T07:36:13;14.80;;;11.68;;
40314;SDS011;26021;45.640;11.302;2023-08-24T07:38:39;16.27;;;11.82;;
40314;SDS011;26021;45.640;11.302;2023-08-24T07:41:04;16.13;;;12.13;;
40314;SDS011;26021;45.640;11.302;2023-08-24T07:43:31;17.17;;;11.07;;
40314;SDS011;26021;45.640;11.302;2023-08-24T07:45:57;13.80;;;11.35;;
40314;SDS011;26021;45.640;11.302;2023-08-24T07:48:23;11.82;;;10.32;;
40314;SDS011;26021;45.640;11.302;2023-08-24T07:50:48;12.95;;;11.50;;
40314;SDS011;26021;45.640;11.302;2023-08-24T07:53:14;12.98;;;10.95;;
40314;SDS011;26021;45.640;11.302;2023-08-24T07:55:39;11.82;;;10.68;;
40314;SDS011;26021;45.640;11.302;2023-08-24T07:58:05;11.48;;;10.30;;
40314;SDS011;26021;45.640;11.302;2023-08-24T08:00:30;13.05;;;10.32;;
40314;SDS011;26021;45.640;11.302;2023-08-24T08:02:56;15.45;;;10.75;;
40314;SDS011;26021;45.640;11.302;2023-08-24T08:05:21;10.98;;;9.80;;
40314;SDS011;26021;45.640;11.302;2023-08-24T08:07:47;11.88;;;9.93;;
40314;SDS011;26021;45.640;11.302;2023-08-24T08:10:13;11.80;;;9.75;;
40314;SDS011;26021;45.640;11.302;2023-08-24T08:12:42;10.48;;;9.48;;
40314;SDS011;26021;45.640;11.302;2023-08-24T08:15:07;11.00;;;9.90;;
40314;SDS011;26021;45.640;11.302;2023-08-24T08:17:33;9.82;;;8.82;;
40314;SDS011;26021;45.640;11.302;2023-08-24T08:19:59;10.25;;;8.18;;
40314;SDS011;26021;45.640;11.302;2023-08-24T08:22:24;9.57;;;8.70;;
40314;SDS011;26021;45.640;11.302;2023-08-24T08:24:50;9.75;;;8.70;;
40314;SDS011;26021;45.640;11.302;2023-08-24T08:27:19;9.50;;;8.57;;
40314;SDS011;26021;45.640;11.302;2023-08-24T08:29:44;9.52;;;8.55;;
40314;SDS011;26021;45.640;11.302;2023-08-24T08:32:10;9.95;;;9.02;;
40314;SDS011;26021;45.640;11.302;2023-08-24T08:34:37;9.60;;;8.50;;
40314;SDS011;26021;45.640;11.302;2023-08-24T08:37:03;11.13;;;8.95;;
40314;SDS011;26021;45.640;11.302;2023-08-24T08:39:28;12.07;;;10.82;;
40314;SDS011;26021;45.640;11.302;2023-08-24T08:41:53;9.85;;;8.93;;
40314;SDS011;26021;45.640;11.302;2023-08-24T08:44:19;11.80;;;9.13;;
40314;SDS011;26021;45.640;11.302;2023-08-24T08:46:47;10.13;;;8.45;;
40314;SDS011;26021;45.640;11.302;2023-08-24T08:49:14;9.77;;;8.77;;
40314;SDS011;26021;45.640;11.302;2023-08-24T08:51:41;11.23;;;9.18;;
40314;SDS011;26021;45.640;11.302;2023-08-24T08:54:08;12.50;;;9.18;;
40314;SDS011;26021;45.640;11.302;2023-08-24T08:56:34;10.13;;;8.52;;
40314;SDS011;26021;45.640;11.302;2023-08-24T08:59:00;9.98;;;8.68;;
40314;SDS011;26021;45.640;11.302;2023-08-24T09:01:27;10.30;;;8.50;;
40314;SDS011;26021;45.640;11.302;2023-08-24T09:03:53;10.10;;;8.88;;
40314;SDS011;26021;45.640;11.302;2023-08-24T09:06:20;9.93;;;9.02;;
40314;SDS011;26021;45.640;11.302;2023-08-24T09:08:47;11.80;;;9.55;;
40314;SDS011;26021;45.640;11.302;2023-08-24T09:11:14;11.82;;;10.00;;
40314;SDS011;26021;45.640;11.302;2023-08-24T09:13:40;10.30;;;9.20;;
40314;SDS011;26021;45.640;11.302;2023-08-24T09:16:06;12.75;;;9.10;;
40314;SDS011;26021;45.640;11.302;2023-08-24T09:18:39;9.95;;;8.65;;
40314;SDS011;26021;45.640;11.302;2023-08-24T09:21:08;10.68;;;8.63;;
40314;SDS011;26021;45.640;11.302;2023-08-24T09:23:34;11.07;;;9.18;;
40314;SDS011;26021;45.640;11.302;2023-08-24T09:26:00;10.77;;;8.63;;
40314;SDS011;26021;45.640;11.302;2023-08-24T09:28:25;11.57;;;8.73;;
40314;SDS011;26021;45.640;11.302;2023-08-24T09:30:52;11.43;;;10.02;;
40314;SDS011;26021;45.640;11.302;2023-08-24T09:33:21;11.68;;;9.25;;
40314;SDS011;26021;45.640;11.302;2023-08-24T09:35:53;10.77;;;9.68;;
40314;SDS011;26021;45.640;11.302;2023-08-24T09:38:23;10.55;;;9.45;;
40314;SDS011;26021;45.640;11.302;2023-08-24T09:40:52;12.80;;;9.57;;
40314;SDS011;26021;45.640;11.302;2023-08-24T09:43:19;10.45;;;9.15;;
40314;SDS011;26021;45.640;11.302;2023-08-24T09:48:17;11.25;;;9.35;;
40314;SDS011;26021;45.640;11.302;2023-08-24T09:50:47;9.90;;;9.10;;
40314;SDS011;26021;45.640;11.302;2023-08-24T09:53:15;10.93;;;9.88;;
40314;SDS011;26021;45.640;11.302;2023-08-24T09:55:44;24.67;;;22.33;;
40314;SDS011;26021;45.640;11.302;2023-08-24T09:58:15;13.88;;;9.75;;
40314;SDS011;26021;45.640;11.302;2023-08-24T10:00:43;10.23;;;8.98;;
40314;SDS011;26021;45.640;11.302;2023-08-24T10:03:12;11.63;;;9.50;;
40314;SDS011;26021;45.640;11.302;2023-08-24T10:05:44;11.85;;;9.10;;
40314;SDS011;26021;45.640;11.302;2023-08-24T10:08:09;11.65;;;9.50;;
40314;SDS011;26021;45.640;11.302;2023-08-24T10:10:36;13.73;;;9.80;;
40314;SDS011;26021;45.640;11.302;2023-08-24T10:13:08;17.65;;;9.90;;
40314;SDS011;26021;45.640;11.302;2023-08-24T10:15:42;10.30;;;9.40;;
40314;SDS011;26021;45.640;11.302;2023-08-24T10:18:11;12.63;;;9.43;;
40314;SDS011;26021;45.640;11.302;2023-08-24T10:20:39;11.43;;;9.45;;
40314;SDS011;26021;45.640;11.302;2023-08-24T10:23:07;10.25;;;9.25;;
40314;SDS011;26021;45.640;11.302;2023-08-24T10:25:33;15.05;;;10.38;;
40314;SDS011;26021;45.640;11.302;2023-08-24T10:27:59;10.60;;;9.27;;
40314;SDS011;26021;45.640;11.302;2023-08-24T10:30:26;11.30;;;10.25;;
40314;SDS011;26021;45.640;11.302;2023-08-24T10:32:54;11.80;;;9.45;;
40314;SDS011;26021;45.640;11.302;2023-08-24T10:35:20;11.32;;;10.23;;
40314;SDS011;26021;45.640;11.302;2023-08-24T10:37:47;10.65;;;9.65;;
40314;SDS011;26021;45.640;11.302;2023-08-24T10:40:12;12.30;;;9.52;;
40314;SDS011;26021;45.640;11.302;2023-08-24T10:42:44;16.70;;;10.00;;
40314;SDS011;26021;45.640;11.302;2023-08-24T10:45:11;10.65;;;9.60;;
40314;SDS011;26021;45.640;11.302;2023-08-24T10:47:44;12.38;;;9.27;;
40314;SDS011;26021;45.640;11.302;2023-08-24T10:50:11;11.00;;;9.85;;
40314;SDS011;26021;45.640;11.302;2023-08-24T10:52:37;10.77;;;9.65;;
40314;SDS011;26021;45.640;11.302;2023-08-24T10:55:04;10.93;;;9.82;;
40314;SDS011;26021;45.640;11.302;2023-08-24T10:57:47;11.80;;;10.63;;
40314;SDS011;26021;45.640;11.302;2023-08-24T11:00:25;13.82;;;10.25;;
40314;SDS011;26021;45.640;11.302;2023-08-24T11:02:52;16.35;;;10.18;;
40314;SDS011;26021;45.640;11.302;2023-08-24T11:05:19;12.18;;;10.98;;
40314;SDS011;26021;45.640;11.302;2023-08-24T11:07:53;11.77;;;10.48;;
40314;SDS011;26021;45.640;11.302;2023-08-24T11:10:21;11.13;;;10.07;;
40314;SDS011;26021;45.640;11.302;2023-08-24T11:15:32;11.38;;;10.32;;
40314;SDS011;26021;45.640;11.302;2023-08-24T11:18:21;12.05;;;10.48;;
40314;SDS011;26021;45.640;11.302;2023-08-24T11:20:57;11.88;;;10.52;;
40314;SDS011;26021;45.640;11.302;2023-08-24T11:23:28;12.85;;;10.73;;
40314;SDS011;26021;45.640;11.302;2023-08-24T11:25:55;11.20;;;10.10;;
40314;SDS011;26021;45.640;11.302;2023-08-24T11:28:23;14.63;;;11.02;;
40314;SDS011;26021;45.640;11.302;2023-08-24T11:30:50;12.25;;;10.13;;
40314;SDS011;26021;45.640;11.302;2023-08-24T11:33:17;15.27;;;10.85;;
40314;SDS011;26021;45.640;11.302;2023-08-24T11:35:53;15.48;;;10.27;;
40314;SDS011;26021;45.640;11.302;2023-08-24T11:38:19;14.43;;;9.70;;
40314;SDS011;26021;45.640;11.302;2023-08-24T11:40:44;11.38;;;10.13;;
40314;SDS011;26021;45.640;11.302;2023-08-24T11:43:10;12.20;;;10.98;;
40314;SDS011;26021;45.640;11.302;2023-08-24T11:45:35;11.82;;;10.40;;
40314;SDS011;26021;45.640;11.302;2023-08-24T11:48:03;13.95;;;10.27;;
40314;SDS011;26021;45.640;11.302;2023-08-24T11:50:32;11.73;;;10.63;;
40314;SDS011;26021;45.640;11.302;2023-08-24T11:52:59;11.68;;;10.55;;
40314;SDS011;26021;45.640;11.302;2023-08-24T11:55:26;14.18;;;10.70;;
40314;SDS011;26021;45.640;11.302;2023-08-24T11:57:53;12.45;;;10.88;;
40314;SDS011;26021;45.640;11.302;2023-08-24T12:00:19;12.35;;;10.60;;
40314;SDS011;26021;45.640;11.302;2023-08-24T12:02:46;11.02;;;9.93;;
40314;SDS011;26021;45.640;11.302;2023-08-24T12:05:25;11.25;;;9.98;;
40314;SDS011;26021;45.640;11.302;2023-08-24T12:07:52;16.30;;;11.13;;
40314;SDS011;26021;45.640;11.302;2023-08-24T12:10:19;11.82;;;10.63;;
40314;SDS011;26021;45.640;11.302;2023-08-24T12:12:44;13.77;;;10.13;;
40314;SDS011;26021;45.640;11.302;2023-08-24T12:15:17;14.95;;;10.43;;
40314;SDS011;26021;45.640;11.302;2023-08-24T12:17:45;15.45;;;11.32;;
40314;SDS011;26021;45.640;11.302;2023-08-24T12:20:20;11.95;;;9.95;;
40314;SDS011;26021;45.640;11.302;2023-08-24T12:22:53;10.48;;;9.50;;
40314;SDS011;26021;45.640;11.302;2023-08-24T12:25:22;14.02;;;10.20;;
40314;SDS011;26021;45.640;11.302;2023-08-24T12:27:50;12.85;;;10.15;;
40314;SDS011;26021;45.640;11.302;2023-08-24T12:33:07;11.88;;;10.02;;
40314;SDS011;26021;45.640;11.302;2023-08-24T12:35:33;17.42;;;11.57;;
40314;SDS011;26021;45.640;11.302;2023-08-24T12:37:58;11.68;;;10.27;;
40314;SDS011;26021;45.640;11.302;2023-08-24T12:40:24;11.57;;;10.50;;
40314;SDS011;26021;45.640;11.302;2023-08-24T12:42:50;10.70;;;9.60;;
40314;SDS011;26021;45.640;11.302;2023-08-24T12:45:15;16.90;;;10.68;;
40314;SDS011;26021;45.640;11.302;2023-08-24T12:47:41;13.98;;;10.32;;
40314;SDS011;26021;45.640;11.302;2023-08-24T12:50:06;13.40;;;9.60;;
40314;SDS011;26021;45.640;11.302;2023-08-24T12:52:32;12.77;;;10.27;;
40314;SDS011;26021;45.640;11.302;2023-08-24T12:54:57;15.77;;;10.13;;
40314;SDS011;26021;45.640;11.302;2023-08-24T12:57:23;12.35;;;9.63;;
40314;SDS011;26021;45.640;11.302;2023-08-24T12:59:49;11.95;;;9.55;;
40314;SDS011;26021;45.640;11.302;2023-08-24T13:02:16;11.07;;;9.98;;
40314;SDS011;26021;45.640;11.302;2023-08-24T13:04:42;13.35;;;9.40;;
40314;SDS011;26021;45.640;11.302;2023-08-24T13:07:08;13.20;;;9.38;;
40314;SDS011;26021;45.640;11.302;2023-08-24T13:09:34;13.30;;;10.10;;
40314;SDS011;26021;45.640;11.302;2023-08-24T13:11:59;13.57;;;9.23;;
40314;SDS011;26021;45.640;11.302;2023-08-24T13:14:25;12.10;;;9.63;;
40314;SDS011;26021;45.640;11.302;2023-08-24T13:16:50;19.08;;;9.52;;
40314;SDS011;26021;45.640;11.302;2023-08-24T13:19:15;12.57;;;9.45;;
40314;SDS011;26021;45.640;11.302;2023-08-24T13:21:41;15.15;;;9.77;;
40314;SDS011;26021;45.640;11.302;2023-08-24T13:24:06;12.30;;;9.02;;
40314;SDS011;26021;45.640;11.302;2023-08-24T13:26:32;18.50;;;9.48;;
40314;SDS011;26021;45.640;11.302;2023-08-24T13:28:57;16.13;;;9.15;;
40314;SDS011;26021;45.640;11.302;2023-08-24T13:31:23;11.40;;;9.50;;
40314;SDS011;26021;45.640;11.302;2023-08-24T13:33:48;10.95;;;9.27;;
40314;SDS011;26021;45.640;11.302;2023-08-24T13:36:14;11.90;;;10.00;;
40314;SDS011;26021;45.640;11.302;2023-08-24T13:38:39;11.30;;;9.88;;
40314;SDS011;26021;45.640;11.302;2023-08-24T13:41:05;9.38;;;8.52;;
40314;SDS011;26021;45.640;11.302;2023-08-24T13:43:31;12.60;;;9.13;;
40314;SDS011;26021;45.640;11.302;2023-08-24T13:45:56;14.77;;;9.32;;
40314;SDS011;26021;45.640;11.302;2023-08-24T13:48:22;9.82;;;8.75;;
40314;SDS011;26021;45.640;11.302;2023-08-24T13:50:49;10.63;;;9.00;;
40314;SDS011;26021;45.640;11.302;2023-08-24T13:53:16;15.05;;;9.02;;
40314;SDS011;26021;45.640;11.302;2023-08-24T13:55:42;10.48;;;8.63;;
40314;SDS011;26021;45.640;11.302;2023-08-24T13:58:08;8.95;;;7.97;;
40314;SDS011;26021;45.640;11.302;2023-08-24T14:00:33;9.57;;;8.48;;
40314;SDS011;26021;45.640;11.302;2023-08-24T14:02:59;15.85;;;9.07;;
40314;SDS011;26021;45.640;11.302;2023-08-24T14:05:24;10.35;;;8.75;;
40314;SDS011;26021;45.640;11.302;2023-08-24T14:07:50;10.00;;;8.23;;
40314;SDS011;26021;45.640;11.302;2023-08-24T14:10:16;8.93;;;7.97;;
40314;SDS011;26021;45.640;11.302;2023-08-24T14:12:41;16.95;;;8.90;;
40314;SDS011;26021;45.640;11.302;2023-08-24T14:15:07;11.18;;;8.68;;
40314;SDS011;26021;45.640;11.302;2023-08-24T14:17:33;12.43;;;8.88;;
40314;SDS011;26021;45.640;11.302;2023-08-24T14:19:58;10.32;;;9.32;;
40314;SDS011;26021;45.640;11.302;2023-08-24T14:22:25;12.95;;;9.43;;